.
WxDataArchive / Data Records for 2006-04-18
2006-04-17 April 2006 2006-04-19

Data Records for Tuesday, 18 April 2006

Time	Temp	Chill	HIndex	Humid	Dewpt	 Wind 	HiWind	WindDir	Rain 	Barom 
-----	----	-----	------	-----	-----	------	------	-------	-----	----- 
00:00	46.2	46.2	46.2	73	38.0	2	4	90	0.00	29.968 
00:05	46.0	46.0	46.0	73	37.8	2	5	90	0.00	29.968 
00:10	45.8	45.8	45.8	73	37.6	2	5	90	0.00	29.968 
00:15	45.8	45.8	45.8	73	37.6	2	5	112	0.00	29.975 
00:20	45.8	45.8	45.8	72	37.3	3	6	112	0.00	29.975 
00:25	45.8	45.8	45.8	72	37.3	2	5	112	0.00	29.975 
00:30	45.7	45.7	45.7	73	37.5	2	4	90	0.00	29.975 
00:35	45.4	45.4	45.4	73	37.3	2	4	90	0.00	29.975 
00:40	45.2	45.2	45.2	74	37.4	2	5	112	0.00	29.975 
00:45	45.1	45.1	45.1	74	37.3	3	7	112	0.00	29.973 
00:50	44.9	44.9	44.9	73	36.8	3	7	112	0.00	29.973 
00:55	44.8	44.8	44.8	73	36.7	3	6	90	0.00	29.973 
01:00	44.6	44.6	44.6	73	36.5	3	6	90	0.00	29.967 
01:05	44.6	44.6	44.6	73	36.5	3	6	112	0.00	29.967 
01:10	44.6	42.6	44.6	73	36.5	4	7	90	0.00	29.967 
01:15	44.8	44.8	44.8	72	36.3	3	7	112	0.00	29.970 
01:20	44.8	44.8	44.8	72	36.3	3	9	112	0.00	29.970 
01:25	44.8	44.8	44.8	72	36.3	3	6	112	0.00	29.970 
01:30	44.9	43.0	44.9	72	36.4	4	9	112	0.00	29.976 
01:35	44.9	43.0	44.9	72	36.4	4	10	90	0.00	29.976 
01:40	44.8	44.8	44.8	72	36.3	3	7	90	0.00	29.976 
01:45	44.6	44.6	44.6	73	36.5	3	7	90	0.00	29.979 
01:50	44.5	44.5	44.5	73	36.4	3	5	112	0.00	29.979 
01:55	44.3	44.3	44.3	74	36.5	2	5	90	0.00	29.979 
02:00	44.1	44.1	44.1	75	36.7	2	4	112	0.00	29.979 
02:05	43.9	43.9	43.9	75	36.5	2	5	90	0.00	29.979 
02:10	43.8	43.8	43.8	76	36.7	2	5	90	0.00	29.979 
02:15	43.6	43.6	43.6	76	36.5	2	4	90	0.00	29.976 
02:20	43.6	43.6	43.6	77	36.9	2	4	112	0.00	29.976 
02:25	43.5	43.5	43.5	77	36.8	3	6	112	0.00	29.976 
02:30	43.5	43.5	43.5	77	36.8	2	4	90	0.00	29.975 
02:35	43.3	43.3	43.3	78	36.9	2	3	112	0.00	29.975 
02:40	43.1	43.1	43.1	78	36.7	0	3	112	0.00	29.975 
02:45	42.8	42.8	42.8	79	36.7	0	3	112	0.00	29.973 
02:50	42.5	42.5	42.5	79	36.5	0	3	112	0.00	29.973 
02:55	42.2	42.2	42.2	79	36.2	0	2	112	0.00	29.973 
03:00	42.1	42.1	42.1	80	36.4	0	1	112	0.00	29.977 
03:05	41.8	41.8	41.8	81	36.4	0	2	90	0.00	29.977 
03:10	41.8	41.8	41.8	81	36.4	0	2	90	0.00	29.977 
03:15	41.6	41.6	41.6	81	36.2	0	1	112	0.00	29.977 
03:20	41.5	41.5	41.5	82	36.4	0	3	112	0.00	29.977 
03:25	41.3	41.3	41.3	82	36.2	0	1	112	0.00	29.977 
03:30	41.3	41.3	41.3	83	36.5	0	2	68	0.00	29.975 
03:35	41.3	41.3	41.3	83	36.5	0	2	68	0.00	29.975 
03:40	41.3	41.3	41.3	83	36.5	0	2	68	0.00	29.975 
03:45	41.3	41.3	41.3	83	36.5	0	2	68	0.00	29.974 
03:50	41.2	41.2	41.2	83	36.4	0	1	68	0.00	29.974 
03:55	41.1	41.1	41.1	83	36.3	0	2	68	0.00	29.974 
04:00	40.9	40.9	40.9	84	36.4	0	2	68	0.00	29.977 
04:05	40.6	40.6	40.6	84	36.2	0	1	68	0.00	29.977 
04:10	40.5	40.5	40.5	84	36.1	0	0	---	0.00	29.977 
04:15	40.2	40.2	40.2	85	36.1	0	0	---	0.00	29.975 
04:20	40.1	40.1	40.1	85	36.0	0	1	68	0.00	29.975 
04:25	39.9	39.9	39.9	85	35.8	0	1	68	0.00	29.975 
04:30	39.8	39.8	39.8	85	35.7	0	1	68	0.00	29.971 
04:35	39.8	39.8	39.8	85	35.7	0	2	68	0.00	29.971 
04:40	39.8	39.8	39.8	85	35.7	0	1	68	0.00	29.971 
04:45	39.9	39.9	39.9	84	35.5	0	1	68	0.00	29.970 
04:50	39.9	39.9	39.9	84	35.5	0	1	68	0.00	29.970 
04:55	39.9	39.9	39.9	84	35.5	0	1	68	0.00	29.970 
05:00	39.9	39.9	39.9	84	35.5	0	1	68	0.00	29.970 
05:05	39.9	39.9	39.9	84	35.5	0	1	68	0.00	29.970 
05:10	40.1	40.1	40.1	84	35.7	0	1	68	0.00	29.970 
05:15	40.1	40.1	40.1	83	35.4	0	2	68	0.00	29.974 
05:20	40.1	40.1	40.1	83	35.4	0	1	68	0.00	29.974 
05:25	40.2	40.2	40.2	83	35.5	1	3	68	0.00	29.974 
05:30	40.5	40.5	40.5	82	35.4	0	3	112	0.00	29.968 
05:35	40.6	40.6	40.6	82	35.5	1	3	112	0.00	29.968 
05:40	40.8	40.8	40.8	82	35.7	0	3	112	0.00	29.968 
05:45	40.8	40.8	40.8	81	35.4	1	5	22	0.00	29.967 
05:50	40.8	40.8	40.8	81	35.4	1	2	45	0.00	29.967 
05:55	40.8	40.8	40.8	81	35.4	0	2	45	0.00	29.967 
06:00	40.8	40.8	40.8	82	35.7	0	2	45	0.00	29.968 
06:05	40.6	40.6	40.6	82	35.5	1	2	45	0.00	29.968 
06:10	40.6	40.6	40.6	82	35.5	0	2	45	0.00	29.968 
06:15	40.6	40.6	40.6	82	35.5	1	4	90	0.00	29.972 
06:20	40.5	40.5	40.5	82	35.4	1	4	112	0.00	29.972 
06:25	40.5	40.5	40.5	83	35.8	1	2	112	0.00	29.972 
06:30	40.3	40.3	40.3	83	35.6	1	3	112	0.00	29.977 
06:35	40.2	40.2	40.2	83	35.5	1	3	112	0.00	29.977 
06:40	40.2	40.2	40.2	83	35.5	1	4	90	0.00	29.977 
06:45	40.2	40.2	40.2	83	35.5	1	3	112	0.00	29.982 
06:50	40.1	40.1	40.1	83	35.4	0	2	112	0.00	29.982 
06:55	40.1	40.1	40.1	83	35.4	1	4	112	0.00	29.982 
07:00	40.1	40.1	40.1	83	35.4	1	3	112	0.00	29.984 
07:05	40.1	40.1	40.1	83	35.4	1	3	90	0.00	29.984 
07:10	40.1	40.1	40.1	83	35.4	1	2	90	0.00	29.984 
07:15	40.1	40.1	40.1	83	35.4	1	4	90	0.00	29.986 
07:20	40.1	40.1	40.1	83	35.4	1	4	112	0.00	29.986 
07:25	40.2	40.2	40.2	83	35.5	1	3	68	0.00	29.986 
07:30	40.2	40.2	40.2	83	35.5	1	3	90	0.00	29.989 
07:35	40.3	40.3	40.3	83	35.6	2	4	90	0.00	29.989 
07:40	40.8	40.8	40.8	81	35.4	2	6	112	0.00	29.989 
07:45	41.2	41.2	41.2	81	35.8	2	5	112	0.00	29.998 
07:50	41.5	41.5	41.5	80	35.8	1	4	90	0.00	29.998 
07:55	41.8	41.8	41.8	80	36.1	2	4	90	0.00	29.998 
08:00	42.1	42.1	42.1	80	36.4	1	4	90	0.00	29.999 
08:05	42.5	42.5	42.5	79	36.5	2	5	90	0.00	29.999 
08:10	42.9	42.9	42.9	78	36.5	3	5	112	0.00	29.999 
08:15	43.3	43.3	43.3	77	36.6	3	6	90	0.00	30.008 
08:20	43.8	43.8	43.8	77	37.1	3	6	90	0.00	30.008 
08:25	44.1	44.1	44.1	77	37.4	3	7	112	0.00	30.008 
08:30	44.5	44.5	44.5	76	37.4	3	7	90	0.00	30.010 
08:35	45.1	45.1	45.1	76	38.0	3	6	112	0.00	30.010 
08:40	45.5	45.5	45.5	77	38.7	3	7	112	0.00	30.010 
08:45	46.1	46.1	46.1	75	38.6	3	10	90	0.00	30.010 
08:50	46.7	46.7	46.7	74	38.9	3	6	90	0.00	30.010 
08:55	47.3	47.3	47.3	72	38.7	3	7	112	0.00	30.010 
09:00	47.6	45.4	47.6	72	39.0	5	10	112	0.00	30.011 
09:05	48.0	45.3	48.0	70	38.7	6	12	112	0.00	30.011 
09:10	48.6	46.6	48.6	69	38.9	5	9	90	0.00	30.011 
09:15	48.9	46.4	48.9	69	39.2	6	12	112	0.00	30.012 
09:20	49.1	46.1	49.1	67	38.6	7	13	112	0.00	30.012 
09:25	49.5	47.6	49.5	68	39.4	5	12	112	0.00	30.012 
09:30	49.9	47.5	49.9	67	39.4	6	10	112	0.00	30.009 
09:35	50.4	50.4	50.4	67	39.9	6	12	112	0.00	30.009 
09:40	51.0	51.0	51.0	66	40.0	5	12	112	0.00	30.009 
09:45	51.4	51.4	51.4	65	40.0	5	11	112	0.00	30.008 
09:50	51.7	51.7	51.7	65	40.3	6	12	90	0.00	30.008 
09:55	52.2	52.2	52.2	62	39.6	5	12	112	0.00	30.008 
10:00	52.5	52.5	52.5	61	39.4	6	12	90	0.00	30.007 
10:05	52.6	52.6	52.6	61	39.5	7	13	112	0.00	30.007 
10:10	53.1	53.1	53.1	62	40.4	5	10	112	0.00	30.007 
10:15	53.5	53.5	53.5	59	39.5	6	12	112	0.00	30.001 
10:20	53.2	53.2	53.2	60	39.7	8	15	112	0.00	30.001 
10:25	53.5	53.5	53.5	58	39.1	7	11	112	0.00	30.001 
10:30	53.9	53.9	53.9	59	39.9	7	13	112	0.00	30.003 
10:35	54.2	54.2	54.2	58	39.7	6	15	112	0.00	30.003 
10:40	54.7	54.7	54.7	57	39.8	6	11	112	0.00	30.003 
10:45	55.0	55.0	55.0	58	40.5	6	11	112	0.00	30.000 
10:50	54.8	54.8	54.8	57	39.9	8	12	90	0.00	30.000 
10:55	55.3	55.3	55.3	56	39.9	6	12	90	0.00	30.000 
11:00	55.9	55.9	55.9	55	40.0	5	12	112	0.00	29.997 
11:05	56.3	56.3	56.3	53	39.4	6	17	112	0.00	29.997 
11:10	56.5	56.5	56.5	55	40.5	5	17	112	0.00	29.997 
11:15	56.9	56.9	56.9	54	40.4	6	11	112	0.00	30.000 
11:20	56.9	56.9	56.9	54	40.4	6	13	112	0.00	30.000 
11:25	56.9	56.9	56.9	53	39.9	7	14	90	0.00	30.000 
11:30	57.2	57.2	57.2	53	40.2	6	12	112	0.00	29.997 
11:35	57.5	57.5	57.5	54	41.0	6	14	112	0.00	29.997 
11:40	58.0	58.0	58.0	52	40.5	7	13	112	0.00	29.997 
11:45	58.0	58.0	58.0	52	40.5	7	17	112	0.00	29.996 
11:50	58.3	58.3	58.3	52	40.8	6	12	112	0.00	29.996 
11:55	58.6	58.6	58.6	51	40.5	6	12	112	0.00	29.996 
12:00	59.0	59.0	59.0	50	40.4	6	14	90	0.00	29.994 
12:05	58.9	58.9	58.9	50	40.3	7	14	112	0.00	29.994 
12:10	59.3	59.3	59.3	50	40.7	6	12	112	0.00	29.994 
12:15	59.6	59.6	59.6	48	39.9	7	14	112	0.00	29.994 
12:20	59.5	59.5	59.5	51	41.4	7	12	112	0.00	29.994 
12:25	59.9	59.9	59.9	49	40.7	5	12	112	0.00	29.994 
12:30	60.1	60.1	60.1	51	41.9	6	13	112	0.00	29.994 
12:35	60.7	60.7	60.7	49	41.4	5	11	112	0.00	29.994 
12:40	60.9	60.9	60.9	49	41.6	6	12	112	0.00	29.994 
12:45	61.0	61.0	61.0	46	40.1	5	12	90	0.00	29.992 
12:50	60.9	60.9	60.9	46	40.0	6	14	112	0.00	29.992 
12:55	61.5	61.5	61.5	46	40.5	6	12	112	0.00	29.992 
13:00	62.0	62.0	62.0	45	40.4	6	10	90	0.00	29.991 
13:05	62.1	62.1	62.1	45	40.5	5	13	90	0.00	29.991 
13:10	62.1	62.1	62.1	46	41.1	6	13	112	0.00	29.991 
13:15	62.7	62.7	62.7	45	41.0	6	12	90	0.00	29.990 
13:20	62.4	62.4	62.4	44	40.2	6	12	90	0.00	29.990 
13:25	62.4	62.4	62.4	43	39.6	5	12	90	0.00	29.990 
13:30	62.9	62.9	62.9	43	40.1	4	12	90	0.00	29.983 
13:35	62.9	62.9	62.9	41	38.8	6	11	112	0.00	29.983 
13:40	63.1	63.1	63.1	45	41.4	5	13	112	0.00	29.983 
13:45	63.1	63.1	63.1	41	39.0	6	11	112	0.00	29.976 
13:50	63.2	63.2	63.2	41	39.1	5	11	112	0.00	29.976 
13:55	63.5	63.5	63.5	45	41.8	6	12	112	0.00	29.976 
14:00	64.0	64.0	64.0	41	39.8	5	14	112	0.00	29.971 
14:05	64.2	64.2	64.2	42	40.6	5	15	112	0.00	29.971 
14:10	64.0	64.0	64.0	38	37.9	5	10	112	0.00	29.971 
14:15	64.2	64.2	64.2	40	39.4	6	11	112	0.00	29.973 
14:20	64.2	64.2	64.2	36	36.7	6	12	90	0.00	29.973 
14:25	64.0	64.0	64.0	38	37.9	5	12	112	0.00	29.973 
14:30	64.3	64.3	64.3	40	39.5	5	13	90	0.00	29.967 
14:35	64.5	64.5	64.5	37	37.6	5	11	112	0.00	29.967 
14:40	64.5	64.5	64.5	41	40.3	5	14	112	0.00	29.967 
14:45	64.5	64.5	64.5	38	38.3	6	14	112	0.00	29.961 
14:50	64.7	64.7	64.7	45	42.9	6	13	90	0.00	29.961 
14:55	64.8	64.8	64.8	43	41.8	5	12	90	0.00	29.961 
15:00	65.0	65.0	65.0	40	40.1	5	13	112	0.00	29.959 
15:05	64.8	64.8	64.8	38	38.6	6	12	112	0.00	29.959 
15:10	65.0	65.0	65.0	37	38.1	5	10	112	0.00	29.959 
15:15	65.0	65.0	65.0	39	39.4	6	16	112	0.00	29.958 
15:20	65.0	65.0	65.0	41	40.7	4	9	112	0.00	29.958 
15:25	65.3	65.3	65.3	39	39.7	6	12	90	0.00	29.958 
15:30	65.6	65.6	65.6	38	39.3	5	12	112	0.00	29.952 
15:35	65.5	65.5	65.5	40	40.5	6	13	112	0.00	29.952 
15:40	65.8	65.8	65.8	35	37.4	5	14	112	0.00	29.952 
15:45	66.0	66.0	66.0	35	37.6	5	13	112	0.00	29.946 
15:50	65.6	65.6	65.6	37	38.6	6	12	112	0.00	29.946 
15:55	65.6	65.6	65.6	34	36.5	5	14	112	0.00	29.946 
16:00	65.8	65.8	65.8	40	40.8	5	13	112	0.00	29.943 
16:05	65.6	65.6	65.6	37	38.6	7	13	112	0.00	29.943 
16:10	65.6	65.6	65.6	35	37.2	5	10	112	0.00	29.943 
16:15	65.8	65.8	65.8	35	37.4	6	10	112	0.00	29.940 
16:20	66.0	66.0	66.0	37	39.0	4	10	112	0.00	29.940 
16:25	66.1	66.1	66.1	30	33.8	7	15	112	0.00	29.940 
16:30	65.8	65.8	65.8	32	35.1	4	10	90	0.00	29.932 
16:35	66.4	66.4	66.4	35	37.9	4	12	112	0.00	29.932 
16:40	67.1	67.1	67.1	34	37.8	4	10	112	0.00	29.932 
16:45	67.1	67.1	67.1	33	37.0	4	6	112	0.00	29.928 
16:50	66.8	66.8	66.8	33	36.8	6	12	112	0.00	29.928 
16:55	66.6	66.6	66.6	32	35.8	6	11	112	0.00	29.928 
17:00	66.4	66.4	66.4	31	34.8	5	10	112	0.00	29.929 
17:05	66.3	66.3	66.3	33	36.3	5	12	112	0.00	29.929 
17:10	66.3	66.3	66.3	35	37.8	5	11	112	0.00	29.929 
17:15	66.4	66.4	66.4	36	38.6	5	13	90	0.00	29.928 
17:20	66.4	66.4	66.4	34	37.2	5	11	112	0.00	29.928 
17:25	66.6	66.6	66.6	34	37.3	5	12	90	0.00	29.928 
17:30	66.6	66.6	66.6	35	38.1	4	7	112	0.00	29.925 
17:35	66.6	66.6	66.6	35	38.1	5	10	90	0.00	29.925 
17:40	66.4	66.4	66.4	34	37.2	6	12	112	0.00	29.925 
17:45	66.6	66.6	66.6	37	39.5	4	9	112	0.00	29.925 
17:50	66.8	66.8	66.8	35	38.3	4	10	90	0.00	29.925 
17:55	66.8	66.8	66.8	37	39.7	3	9	90	0.00	29.925 
18:00	66.8	66.8	66.8	37	39.7	4	11	112	0.00	29.922 
18:05	66.3	66.3	66.3	35	37.8	6	12	112	0.00	29.922 
18:10	66.0	66.0	66.0	36	38.3	6	16	112	0.00	29.922 
18:15	65.8	65.8	65.8	35	37.4	6	14	112	0.00	29.927 
18:20	65.5	65.5	65.5	36	37.8	5	9	112	0.00	29.927 
18:25	65.5	65.5	65.5	36	37.8	4	11	112	0.00	29.927 
18:30	65.3	65.3	65.3	35	36.9	6	11	112	0.00	29.930 
18:35	65.2	65.2	65.2	36	37.6	4	7	112	0.00	29.930 
18:40	65.0	65.0	65.0	37	38.1	5	9	90	0.00	29.930 
18:45	65.0	65.0	65.0	37	38.1	3	8	112	0.00	29.929 
18:50	64.8	64.8	64.8	38	38.6	5	10	112	0.00	29.929 
18:55	64.3	64.3	64.3	38	38.1	6	14	112	0.00	29.929 
19:00	64.0	64.0	64.0	38	37.9	5	11	112	0.00	29.930 
19:05	63.9	63.9	63.9	41	39.7	4	9	90	0.00	29.930 
19:10	63.5	63.5	63.5	42	40.0	4	7	112	0.00	29.930 
19:15	63.2	63.2	63.2	40	38.5	5	12	112	0.00	29.930 
19:20	62.9	62.9	62.9	43	40.1	4	9	112	0.00	29.930 
19:25	62.6	62.6	62.6	43	39.8	4	7	112	0.00	29.930 
19:30	62.1	62.1	62.1	43	39.3	3	7	112	0.00	29.930 
19:35	62.0	62.0	62.0	42	38.6	6	10	112	0.00	29.930 
19:40	61.6	61.6	61.6	43	38.9	5	11	90	0.00	29.930 
19:45	61.3	61.3	61.3	43	38.6	5	10	112	0.00	29.930 
19:50	61.0	61.0	61.0	45	39.5	4	7	112	0.00	29.930 
19:55	60.5	60.5	60.5	45	39.1	4	7	90	0.00	29.930 
20:00	60.2	60.2	60.2	46	39.3	4	8	90	0.00	29.931 
20:05	59.9	59.9	59.9	45	38.5	4	10	112	0.00	29.931 
20:10	59.5	59.5	59.5	46	38.7	4	9	90	0.00	29.931 
20:15	59.2	59.2	59.2	47	39.0	3	5	112	0.00	29.928 
20:20	58.7	58.7	58.7	46	38.0	4	6	112	0.00	29.928 
20:25	58.4	58.4	58.4	47	38.2	4	10	112	0.00	29.928 
20:30	58.1	58.1	58.1	48	38.5	4	10	112	0.00	29.929 
20:35	57.8	57.8	57.8	48	38.2	3	10	90	0.00	29.929 
20:40	57.3	57.3	57.3	49	38.3	3	6	90	0.00	29.929 
20:45	57.0	57.0	57.0	50	38.5	2	5	112	0.00	29.931 
20:50	56.6	56.6	56.6	50	38.2	3	5	112	0.00	29.931 
20:55	56.3	56.3	56.3	50	37.9	4	10	112	0.00	29.931 
21:00	56.0	56.0	56.0	50	37.6	3	7	112	0.00	29.933 
21:05	55.9	55.9	55.9	50	37.5	3	9	112	0.00	29.933 
21:10	55.6	55.6	55.6	50	37.3	3	7	112	0.00	29.933 
21:15	55.4	55.4	55.4	50	37.1	3	7	90	0.00	29.930 
21:20	55.3	55.3	55.3	50	37.0	4	7	112	0.00	29.930 
21:25	55.0	55.0	55.0	51	37.2	3	7	112	0.00	29.930 
21:30	54.8	54.8	54.8	51	37.0	4	7	112	0.00	29.932 
21:35	54.5	54.5	54.5	52	37.2	3	6	112	0.00	29.932 
21:40	54.4	54.4	54.4	53	37.6	3	7	112	0.00	29.932 
21:45	54.1	54.1	54.1	53	37.4	3	6	112	0.00	29.934 
21:50	53.8	53.8	53.8	54	37.5	3	6	112	0.00	29.934 
21:55	53.5	53.5	53.5	55	37.7	3	6	90	0.00	29.934 
22:00	53.2	53.2	53.2	56	37.9	2	3	90	0.00	29.932 
22:05	52.9	52.9	52.9	57	38.1	2	4	90	0.00	29.932 
22:10	52.6	52.6	52.6	56	37.4	2	5	90	0.00	29.932 
22:15	52.5	52.5	52.5	56	37.3	3	7	90	0.00	29.929 
22:20	52.3	52.3	52.3	57	37.5	3	6	90	0.00	29.929 
22:25	52.3	52.3	52.3	56	37.1	3	7	112	0.00	29.929 
22:30	52.3	52.3	52.3	55	36.6	4	10	112	0.00	29.929 
22:35	52.3	52.3	52.3	55	36.6	3	7	112	0.00	29.929 
22:40	52.3	52.3	52.3	56	37.1	3	7	90	0.00	29.929 
22:45	52.2	52.2	52.2	55	36.5	4	8	112	0.00	29.928 
22:50	52.3	52.3	52.3	55	36.6	4	9	112	0.00	29.928 
22:55	52.3	52.3	52.3	56	37.1	4	10	90	0.00	29.928 
23:00	52.0	52.0	52.0	56	36.8	3	6	112	0.00	29.927 
23:05	51.9	51.9	51.9	57	37.1	4	10	90	0.00	29.927 
23:10	51.7	51.7	51.7	57	37.0	4	8	112	0.00	29.927 
23:15	51.6	51.6	51.6	58	37.3	3	6	90	0.00	29.919 
23:20	51.4	51.4	51.4	59	37.6	4	10	90	0.00	29.919 
23:25	51.1	51.1	51.1	59	37.3	4	7	90	0.00	29.919 
23:30	51.1	51.1	51.1	59	37.3	4	7	90	0.00	29.911 
23:35	50.8	50.8	50.8	60	37.4	3	6	90	0.00	29.911 
23:40	50.7	50.7	50.7	60	37.3	3	6	90	0.00	29.911 
23:45	50.5	50.5	50.5	61	37.6	3	7	112	0.00	29.909 
23:50	50.4	50.4	50.4	61	37.5	3	6	112	0.00	29.909 
23:55	50.4	50.4	50.4	62	37.9	3	7	90	0.00	29.909 

CoCoRaHS
IN-AL-39
A2 Web Hosting
Creative Commons License
GoDaddy
Look for:

loaded 2017-12-13 02:43:32 • last modified 2010-11-18 10:43:29
Privacy PolicyDisclaimer
• wx.awcolley.com is powered by PmWiki v.2002016 •
• all content (unless otherwise noted) © 2017 A W Colley